Weymouth, Canada
Current Conditions -  °F | °C
As of 2:00 AM on Sunday 21 Dec 2014 (Local Time) from CYQI Reporting Station
Overcast Overcast  
Wind Chill: 24°   Ceiling: 2600
Heat Index: 32°   Visibility: 15mi
Dew Point: 28°   Wind: 9mph
Humidity: 87%   Direction: 30°NNE
Pressure: 30.29"   Gusts: NA
Location:  44.42°N, 65.98°W
Report Text: CYQI 210600Z 03008KT 15SM OVC026 M00/M02 A3029 RMK SC8 SLP259
Loading
Personal Weather Stations






























Interactive Weather Map New forecast layout! Learn more

10-Day Weather Forecast

Advertisements
Track Severe Weather on mobile